createdAt,value
2023-02-27T00:01:13.000Z,1023.5
2023-02-27T00:02:29.000Z,1023.5
2023-02-27T00:03:46.000Z,1023.6
2023-02-27T00:05:02.000Z,1023.5
2023-02-27T00:06:18.000Z,1023.5
2023-02-27T00:07:34.000Z,1023.5
2023-02-27T00:08:51.000Z,1023.5
2023-02-27T00:10:07.000Z,1023.4
2023-02-27T00:11:23.000Z,1023.5
2023-02-27T00:12:39.000Z,1023.5
2023-02-27T00:13:55.000Z,1023.5
2023-02-27T00:15:11.000Z,1023.5
2023-02-27T00:16:27.000Z,1023.6
2023-02-27T00:17:43.000Z,1023.6
2023-02-27T00:18:59.000Z,1023.5
2023-02-27T00:20:16.000Z,1023.5
2023-02-27T00:21:32.000Z,1023.6
2023-02-27T00:22:48.000Z,1023.5
2023-02-27T00:24:04.000Z,1023.5
2023-02-27T00:25:21.000Z,1023.5
2023-02-27T00:26:37.000Z,1023.6
2023-02-27T00:27:53.000Z,1023.6
2023-02-27T00:29:09.000Z,1023.5
2023-02-27T00:30:26.000Z,1023.5
2023-02-27T00:31:41.000Z,1023.5
2023-02-27T00:32:57.000Z,1023.5
2023-02-27T00:34:13.000Z,1023.5
2023-02-27T00:35:30.000Z,1023.6
2023-02-27T00:36:45.000Z,1023.6
2023-02-27T00:38:00.000Z,1023.6
2023-02-27T00:39:15.000Z,1023.5
2023-02-27T00:40:31.000Z,1023.6
2023-02-27T00:41:47.000Z,1023.5
2023-02-27T00:43:03.000Z,1023.6
2023-02-27T00:44:19.000Z,1023.6
2023-02-27T00:45:35.000Z,1023.6
2023-02-27T00:46:52.000Z,1023.5
2023-02-27T00:48:08.000Z,1023.6
2023-02-27T00:49:24.000Z,1023.5
2023-02-27T00:50:40.000Z,1023.5
2023-02-27T00:51:57.000Z,1023.5
2023-02-27T00:53:13.000Z,1023.6
2023-02-27T00:54:29.000Z,1023.6
2023-02-27T00:55:45.000Z,1023.6
2023-02-27T00:57:01.000Z,1023.6
2023-02-27T00:58:17.000Z,1023.5
2023-02-27T00:59:33.000Z,1023.6
2023-02-27T01:00:49.000Z,1023.6
2023-02-27T01:02:06.000Z,1023.5
2023-02-27T01:03:22.000Z,1023.6
2023-02-27T01:04:38.000Z,1023.6
2023-02-27T01:05:53.000Z,1023.5
2023-02-27T01:07:09.000Z,1023.5
2023-02-27T01:08:25.000Z,1023.5
2023-02-27T01:09:41.000Z,1023.5
2023-02-27T01:10:57.000Z,1023.5
2023-02-27T01:12:13.000Z,1023.5
2023-02-27T01:13:29.000Z,1023.5
2023-02-27T01:14:44.000Z,1023.5
2023-02-27T01:16:00.000Z,1023.4
2023-02-27T01:17:16.000Z,1023.5
2023-02-27T01:18:33.000Z,1023.5
2023-02-27T01:19:49.000Z,1023.5
2023-02-27T01:21:05.000Z,1023.5
2023-02-27T01:22:21.000Z,1023.5
2023-02-27T01:23:38.000Z,1023.5
2023-02-27T01:24:54.000Z,1023.5
2023-02-27T01:26:10.000Z,1023.4
2023-02-27T01:27:26.000Z,1023.5
2023-02-27T01:28:43.000Z,1023.5
2023-02-27T01:29:59.000Z,1023.5
2023-02-27T01:31:14.000Z,1023.4
2023-02-27T01:32:30.000Z,1023.4
2023-02-27T01:33:47.000Z,1023.5
2023-02-27T01:35:03.000Z,1023.4
2023-02-27T01:36:19.000Z,1023.4
2023-02-27T01:37:35.000Z,1023.4
2023-02-27T01:38:51.000Z,1023.5
2023-02-27T01:40:07.000Z,1023.4
2023-02-27T01:41:22.000Z,1023.4
2023-02-27T01:42:37.000Z,1023.4
2023-02-27T01:43:53.000Z,1023.3
2023-02-27T01:45:09.000Z,1023.3
2023-02-27T01:46:25.000Z,1023.3
2023-02-27T01:47:41.000Z,1023.4
2023-02-27T01:48:57.000Z,1023.3
2023-02-27T01:50:14.000Z,1023.4
2023-02-27T01:51:30.000Z,1023.4
2023-02-27T01:52:46.000Z,1023.4
2023-02-27T01:54:02.000Z,1023.4
2023-02-27T01:55:19.000Z,1023.3
2023-02-27T01:56:35.000Z,1023.3
2023-02-27T01:57:51.000Z,1023.4
2023-02-27T01:59:07.000Z,1023.4
2023-02-27T02:00:23.000Z,1023.3
2023-02-27T02:01:39.000Z,1023.3
2023-02-27T02:02:55.000Z,1023.3
2023-02-27T02:04:11.000Z,1023.3
2023-02-27T02:05:28.000Z,1023.3
2023-02-27T02:06:44.000Z,1023.4
2023-02-27T02:08:00.000Z,1023.4
2023-02-27T02:09:15.000Z,1023.4
2023-02-27T02:10:31.000Z,1023.4
2023-02-27T02:11:46.000Z,1023.4
2023-02-27T02:13:01.000Z,1023.4
2023-02-27T02:14:17.000Z,1023.4
2023-02-27T02:15:33.000Z,1023.5
2023-02-27T02:16:50.000Z,1023.4
2023-02-27T02:18:06.000Z,1023.5
2023-02-27T02:19:22.000Z,1023.5
2023-02-27T02:20:38.000Z,1023.5
2023-02-27T02:21:55.000Z,1023.4
2023-02-27T02:23:11.000Z,1023.4
2023-02-27T02:24:27.000Z,1023.5
2023-02-27T02:25:43.000Z,1023.5
2023-02-27T02:27:00.000Z,1023.5
2023-02-27T02:28:16.000Z,1023.5
2023-02-27T02:29:31.000Z,1023.5
2023-02-27T02:30:47.000Z,1023.5
2023-02-27T02:32:04.000Z,1023.5
2023-02-27T02:33:19.000Z,1023.4
2023-02-27T02:34:35.000Z,1023.5
2023-02-27T02:35:51.000Z,1023.5
2023-02-27T02:37:08.000Z,1023.5
2023-02-27T02:38:23.000Z,1023.5
2023-02-27T02:39:38.000Z,1023.5
2023-02-27T02:40:54.000Z,1023.5
2023-02-27T02:42:10.000Z,1023.5
2023-02-27T02:43:25.000Z,1023.5
2023-02-27T02:44:41.000Z,1023.5
2023-02-27T02:45:57.000Z,1023.5
2023-02-27T02:47:13.000Z,1023.4
2023-02-27T02:48:30.000Z,1023.4
2023-02-27T02:49:46.000Z,1023.5
2023-02-27T02:51:02.000Z,1023.5
2023-02-27T02:52:18.000Z,1023.4
2023-02-27T02:53:35.000Z,1023.5
2023-02-27T02:54:51.000Z,1023.5
2023-02-27T02:56:07.000Z,1023.5
2023-02-27T02:57:23.000Z,1023.5
2023-02-27T02:58:40.000Z,1023.4
2023-02-27T02:59:55.000Z,1023.5
2023-02-27T03:01:11.000Z,1023.5
2023-02-27T03:02:27.000Z,1023.5
2023-02-27T03:03:44.000Z,1023.5
2023-02-27T03:05:00.000Z,1023.5
2023-02-27T03:07:32.000Z,1023.5
2023-02-27T03:08:49.000Z,1023.5
2023-02-27T03:10:04.000Z,1023.6
2023-02-27T03:11:19.000Z,1023.6
2023-02-27T03:12:34.000Z,1023.5
2023-02-27T03:13:50.000Z,1023.5
2023-02-27T03:15:06.000Z,1023.5
2023-02-27T03:16:22.000Z,1023.5
2023-02-27T03:17:38.000Z,1023.5
2023-02-27T03:18:54.000Z,1023.5
2023-02-27T03:20:11.000Z,1023.5
2023-02-27T03:21:27.000Z,1023.6
2023-02-27T03:22:43.000Z,1023.6
2023-02-27T03:23:59.000Z,1023.6
2023-02-27T03:25:16.000Z,1023.6
2023-02-27T03:26:32.000Z,1023.6
2023-02-27T03:27:48.000Z,1023.6
2023-02-27T03:29:04.000Z,1023.6
2023-02-27T03:30:20.000Z,1023.6
2023-02-27T03:31:36.000Z,1023.7
2023-02-27T03:32:52.000Z,1023.7
2023-02-27T03:34:08.000Z,1023.6
2023-02-27T03:35:25.000Z,1023.7
2023-02-27T03:36:41.000Z,1023.7
2023-02-27T03:37:57.000Z,1023.7
2023-02-27T03:39:12.000Z,1023.7
2023-02-27T03:40:28.000Z,1023.7
2023-02-27T03:41:44.000Z,1023.7
2023-02-27T03:42:59.000Z,1023.7
2023-02-27T03:44:14.000Z,1023.7
2023-02-27T03:45:31.000Z,1023.7
2023-02-27T03:46:47.000Z,1023.7
2023-02-27T03:48:03.000Z,1023.8
2023-02-27T03:49:19.000Z,1023.7
2023-02-27T03:50:35.000Z,1023.7
2023-02-27T03:51:52.000Z,1023.7
2023-02-27T03:53:08.000Z,1023.7
2023-02-27T03:54:24.000Z,1023.8
2023-02-27T03:55:40.000Z,1023.8
2023-02-27T03:56:57.000Z,1023.8
2023-02-27T03:58:13.000Z,1023.8
2023-02-27T03:59:29.000Z,1023.8
2023-02-27T04:00:44.000Z,1023.9
2023-02-27T04:02:01.000Z,1023.9
2023-02-27T04:03:17.000Z,1023.9
2023-02-27T04:04:33.000Z,1023.9
2023-02-27T04:05:49.000Z,1023.9
2023-02-27T04:07:06.000Z,1023.9
2023-02-27T04:08:22.000Z,1023.9
2023-02-27T04:09:37.000Z,1023.9
2023-02-27T04:10:52.000Z,1023.9
2023-02-27T04:12:08.000Z,1024
2023-02-27T04:13:23.000Z,1023.9
2023-02-27T04:14:39.000Z,1023.9
2023-02-27T04:15:55.000Z,1023.9
2023-02-27T04:17:11.000Z,1024
2023-02-27T04:18:28.000Z,1024
2023-02-27T04:19:44.000Z,1024
2023-02-27T04:21:00.000Z,1024
2023-02-27T04:22:16.000Z,1024
2023-02-27T04:23:33.000Z,1024
2023-02-27T04:24:49.000Z,1024.1
2023-02-27T04:26:05.000Z,1024.1
2023-02-27T04:27:21.000Z,1024.1
2023-02-27T04:28:38.000Z,1024.1
2023-02-27T04:29:53.000Z,1024.1
2023-02-27T04:31:09.000Z,1024.1
2023-02-27T04:32:25.000Z,1024.1
2023-02-27T04:33:42.000Z,1024.1
2023-02-27T04:34:58.000Z,1024.2
2023-02-27T04:36:14.000Z,1024.2
2023-02-27T04:37:30.000Z,1024.2
2023-02-27T04:38:46.000Z,1024.2
2023-02-27T04:40:01.000Z,1024.1
2023-02-27T04:41:17.000Z,1024.1
2023-02-27T04:42:33.000Z,1024.1
2023-02-27T04:43:49.000Z,1024.2
2023-02-27T04:45:06.000Z,1024.2
2023-02-27T04:46:22.000Z,1024.1
2023-02-27T04:47:38.000Z,1024.2
2023-02-27T04:48:54.000Z,1024.1
2023-02-27T04:50:11.000Z,1024.1
2023-02-27T04:51:27.000Z,1024
2023-02-27T04:52:43.000Z,1024
2023-02-27T04:53:59.000Z,1024.1
2023-02-27T04:55:16.000Z,1024.2
2023-02-27T04:56:31.000Z,1024.2
2023-02-27T04:57:47.000Z,1024.1
2023-02-27T04:59:03.000Z,1024.2
2023-02-27T05:00:20.000Z,1024.2
2023-02-27T05:01:36.000Z,1024.2
2023-02-27T05:02:52.000Z,1024.2
2023-02-27T05:04:08.000Z,1024.2
2023-02-27T05:05:24.000Z,1024.2
2023-02-27T05:06:39.000Z,1024.2
2023-02-27T05:07:54.000Z,1024.2
2023-02-27T05:09:09.000Z,1024.2
2023-02-27T05:10:25.000Z,1024.2
2023-02-27T05:11:40.000Z,1024.2
2023-02-27T05:12:56.000Z,1024.2
2023-02-27T05:14:12.000Z,1024.2
2023-02-27T05:15:28.000Z,1024.3
2023-02-27T05:16:45.000Z,1024.2
2023-02-27T05:18:01.000Z,1024.3
2023-02-27T05:19:17.000Z,1024.3
2023-02-27T05:20:33.000Z,1024.3
2023-02-27T05:21:50.000Z,1024.3
2023-02-27T05:23:06.000Z,1024.3
2023-02-27T05:24:22.000Z,1024.3
2023-02-27T05:25:38.000Z,1024.3
2023-02-27T05:26:55.000Z,1024.3
2023-02-27T05:28:10.000Z,1024.4
2023-02-27T05:29:26.000Z,1024.4
2023-02-27T05:30:42.000Z,1024.4
2023-02-27T05:31:59.000Z,1024.4
2023-02-27T05:33:15.000Z,1024.3
2023-02-27T05:34:31.000Z,1024.4
2023-02-27T05:35:47.000Z,1024.4
2023-02-27T05:37:03.000Z,1024.4
2023-02-27T05:38:18.000Z,1024.4
2023-02-27T05:39:34.000Z,1024.5
2023-02-27T05:40:49.000Z,1024.4
2023-02-27T05:42:05.000Z,1024.4
2023-02-27T05:43:21.000Z,1024.4
2023-02-27T05:44:37.000Z,1024.5
2023-02-27T05:45:53.000Z,1024.5
2023-02-27T05:47:09.000Z,1024.5
2023-02-27T05:48:26.000Z,1024.5
2023-02-27T05:49:42.000Z,1024.5
2023-02-27T05:50:58.000Z,1024.6
2023-02-27T05:52:14.000Z,1024.5
2023-02-27T05:53:31.000Z,1024.5
2023-02-27T05:54:47.000Z,1024.5
2023-02-27T05:56:03.000Z,1024.6
2023-02-27T05:57:19.000Z,1024.6
2023-02-27T05:58:35.000Z,1024.6
2023-02-27T05:59:51.000Z,1024.6
2023-02-27T06:01:07.000Z,1024.5
2023-02-27T06:02:23.000Z,1024.6
2023-02-27T06:03:40.000Z,1024.6
2023-02-27T06:04:56.000Z,1024.5
2023-02-27T06:06:12.000Z,1024.5
2023-02-27T06:07:27.000Z,1024.6
2023-02-27T06:08:43.000Z,1024.5
2023-02-27T06:09:58.000Z,1024.5
2023-02-27T06:11:13.000Z,1024.5
2023-02-27T06:12:29.000Z,1024.5
2023-02-27T06:13:46.000Z,1024.5
2023-02-27T06:15:02.000Z,1024.5
2023-02-27T06:16:18.000Z,1024.5
2023-02-27T06:17:34.000Z,1024.5
2023-02-27T06:18:50.000Z,1024.6
2023-02-27T06:20:07.000Z,1024.6
2023-02-27T06:21:23.000Z,1024.6
2023-02-27T06:22:39.000Z,1024.6
2023-02-27T06:23:55.000Z,1024.6
2023-02-27T06:25:12.000Z,1024.6
2023-02-27T06:26:28.000Z,1024.7
2023-02-27T06:27:43.000Z,1024.6
2023-02-27T06:28:59.000Z,1024.7
2023-02-27T06:30:16.000Z,1024.6
2023-02-27T06:31:32.000Z,1024.6
2023-02-27T06:32:48.000Z,1024.7
2023-02-27T06:34:04.000Z,1024.7
2023-02-27T06:35:21.000Z,1024.7
2023-02-27T06:36:36.000Z,1024.7
2023-02-27T06:37:51.000Z,1024.7
2023-02-27T06:39:06.000Z,1024.8
2023-02-27T06:40:22.000Z,1024.8
2023-02-27T06:41:38.000Z,1024.8
2023-02-27T06:42:54.000Z,1024.8
2023-02-27T06:44:10.000Z,1024.8
2023-02-27T06:45:26.000Z,1024.8
2023-02-27T06:46:43.000Z,1024.9
2023-02-27T06:47:58.000Z,1024.9
2023-02-27T06:49:14.000Z,1024.9
2023-02-27T06:50:30.000Z,1024.9
2023-02-27T06:51:47.000Z,1025
2023-02-27T06:53:03.000Z,1024.9
2023-02-27T06:54:19.000Z,1024.9
2023-02-27T06:55:35.000Z,1024.9
2023-02-27T06:56:52.000Z,1024.9
2023-02-27T06:58:08.000Z,1025
2023-02-27T06:59:24.000Z,1024.9
2023-02-27T07:00:40.000Z,1025
2023-02-27T07:01:57.000Z,1024.9
2023-02-27T07:03:13.000Z,1025
2023-02-27T07:04:28.000Z,1025
2023-02-27T07:05:43.000Z,1025
2023-02-27T07:07:00.000Z,1025
2023-02-27T07:08:15.000Z,1025
2023-02-27T07:09:30.000Z,1025
2023-02-27T07:10:46.000Z,1025.1
2023-02-27T07:12:03.000Z,1025.1
2023-02-27T07:13:19.000Z,1025.1
2023-02-27T07:14:35.000Z,1025.1
2023-02-27T07:15:51.000Z,1025.1
2023-02-27T07:17:07.000Z,1025.1
2023-02-27T07:18:24.000Z,1025.1
2023-02-27T07:19:40.000Z,1025.1
2023-02-27T07:20:56.000Z,1025.1
2023-02-27T07:22:12.000Z,1025.1
2023-02-27T07:23:29.000Z,1025.1
2023-02-27T07:24:45.000Z,1025.2
2023-02-27T07:26:00.000Z,1025.2
2023-02-27T07:27:16.000Z,1025.2
2023-02-27T07:28:33.000Z,1025.2
2023-02-27T07:29:49.000Z,1025.2
2023-02-27T07:31:05.000Z,1025.2
2023-02-27T07:32:21.000Z,1025.2
2023-02-27T07:33:38.000Z,1025.2
2023-02-27T07:34:53.000Z,1025.2
2023-02-27T07:36:08.000Z,1025.3
2023-02-27T07:37:23.000Z,1025.2
2023-02-27T07:38:39.000Z,1025.3
2023-02-27T07:39:55.000Z,1025.3
2023-02-27T07:41:11.000Z,1025.1
2023-02-27T07:42:27.000Z,1025.2
2023-02-27T07:43:44.000Z,1025.2
2023-02-27T07:45:00.000Z,1025.2
2023-02-27T07:46:16.000Z,1025.3
2023-02-27T07:47:32.000Z,1025.3
2023-02-27T07:48:48.000Z,1025.3
2023-02-27T07:50:05.000Z,1025.3
2023-02-27T07:51:21.000Z,1025.3
2023-02-27T07:52:37.000Z,1025.3
2023-02-27T07:53:53.000Z,1025.4
2023-02-27T07:55:09.000Z,1025.4
2023-02-27T07:56:25.000Z,1025.4
2023-02-27T07:57:41.000Z,1025.4
2023-02-27T07:58:57.000Z,1025.4
2023-02-27T08:00:14.000Z,1025.4
2023-02-27T08:01:30.000Z,1025.4
2023-02-27T08:02:46.000Z,1025.4
2023-02-27T08:04:01.000Z,1025.4
2023-02-27T08:05:17.000Z,1025.4
2023-02-27T08:06:33.000Z,1025.4
2023-02-27T08:07:49.000Z,1025.4
2023-02-27T08:09:04.000Z,1025.4
2023-02-27T08:10:20.000Z,1025.4
2023-02-27T08:11:36.000Z,1025.4
2023-02-27T08:12:52.000Z,1025.3
2023-02-27T08:14:08.000Z,1025.4
2023-02-27T08:15:24.000Z,1025.4
2023-02-27T08:16:41.000Z,1025.4
2023-02-27T08:17:57.000Z,1025.4
2023-02-27T08:19:13.000Z,1025.4
2023-02-27T08:20:29.000Z,1025.4
2023-02-27T08:21:46.000Z,1025.4
2023-02-27T08:23:02.000Z,1025.4
2023-02-27T08:24:18.000Z,1025.4
2023-02-27T08:25:34.000Z,1025.4
2023-02-27T08:26:50.000Z,1025.4
2023-02-27T08:28:06.000Z,1025.3
2023-02-27T08:29:22.000Z,1025.4
2023-02-27T08:30:38.000Z,1025.3
2023-02-27T08:31:55.000Z,1025.3
2023-02-27T08:33:11.000Z,1025.4
2023-02-27T08:34:27.000Z,1025.3
2023-02-27T08:35:43.000Z,1025.4
2023-02-27T08:37:00.000Z,1025.4
2023-02-27T08:38:16.000Z,1025.4
2023-02-27T08:39:32.000Z,1025.4
2023-02-27T08:40:48.000Z,1025.3
2023-02-27T08:42:04.000Z,1025.4
2023-02-27T08:43:20.000Z,1025.3
2023-02-27T08:44:36.000Z,1025.4
2023-02-27T08:45:52.000Z,1025.4
2023-02-27T08:47:08.000Z,1025.5
2023-02-27T08:48:25.000Z,1025.5
2023-02-27T08:49:41.000Z,1025.5
2023-02-27T08:50:57.000Z,1025.4
2023-02-27T08:52:13.000Z,1025.3
2023-02-27T08:53:30.000Z,1025.4
2023-02-27T08:54:46.000Z,1025.4
2023-02-27T08:56:02.000Z,1025.3
2023-02-27T08:57:18.000Z,1025.3
2023-02-27T08:58:35.000Z,1025.3
2023-02-27T08:59:50.000Z,1025.3
2023-02-27T09:01:06.000Z,1025.3
2023-02-27T09:02:22.000Z,1025.3
2023-02-27T09:03:38.000Z,1025.3
2023-02-27T09:04:55.000Z,1025.4
2023-02-27T09:06:11.000Z,1025.4
2023-02-27T09:07:27.000Z,1025.4
2023-02-27T09:08:43.000Z,1025.5
2023-02-27T09:10:00.000Z,1025.5
2023-02-27T09:11:16.000Z,1025.4
2023-02-27T09:12:32.000Z,1025.3
2023-02-27T09:13:48.000Z,1025.4
2023-02-27T09:15:05.000Z,1025.3
2023-02-27T09:16:20.000Z,1025.3
2023-02-27T09:17:36.000Z,1025.4
2023-02-27T09:18:52.000Z,1025.3
2023-02-27T09:20:09.000Z,1025.4
2023-02-27T09:21:25.000Z,1025.4
2023-02-27T09:22:41.000Z,1025.4
2023-02-27T09:23:57.000Z,1025.4
2023-02-27T09:25:13.000Z,1025.4
2023-02-27T09:26:30.000Z,1025.3
2023-02-27T09:27:46.000Z,1025.4
2023-02-27T09:29:02.000Z,1025.4
2023-02-27T09:30:18.000Z,1025.4
2023-02-27T09:31:35.000Z,1025.4
2023-02-27T09:32:50.000Z,1025.3
2023-02-27T09:34:06.000Z,1025.3
2023-02-27T09:35:22.000Z,1025.3
2023-02-27T09:36:39.000Z,1025.4
2023-02-27T09:37:55.000Z,1025.4
2023-02-27T09:39:11.000Z,1025.3
2023-02-27T09:40:27.000Z,1025.4
2023-02-27T09:41:44.000Z,1025.4
2023-02-27T09:43:00.000Z,1025.4
2023-02-27T09:44:16.000Z,1025.4
2023-02-27T09:45:32.000Z,1025.4
2023-02-27T09:46:48.000Z,1025.4
2023-02-27T09:48:05.000Z,1025.3
2023-02-27T09:49:20.000Z,1025.3
2023-02-27T09:50:36.000Z,1025.3
2023-02-27T09:51:52.000Z,1025.3
2023-02-27T09:53:09.000Z,1025.3
2023-02-27T09:54:25.000Z,1025.4
2023-02-27T09:55:41.000Z,1025.3
2023-02-27T09:56:57.000Z,1025.4
2023-02-27T09:58:14.000Z,1025.3
2023-02-27T09:59:30.000Z,1025.4
2023-02-27T10:00:46.000Z,1025.4
2023-02-27T10:02:02.000Z,1025.3
2023-02-27T10:04:35.000Z,1025.3
2023-02-27T10:05:50.000Z,1025.3
2023-02-27T10:07:06.000Z,1025.3
2023-02-27T10:08:22.000Z,1025.3
2023-02-27T10:09:39.000Z,1025.4
2023-02-27T10:10:55.000Z,1025.3
2023-02-27T10:12:11.000Z,1025.4
2023-02-27T10:14:44.000Z,1025.4
2023-02-27T10:16:00.000Z,1025.3
2023-02-27T10:17:16.000Z,1025.4
2023-02-27T10:18:32.000Z,1025.4
2023-02-27T10:19:49.000Z,1025.3
2023-02-27T10:21:05.000Z,1025.3
2023-02-27T10:22:20.000Z,1025.4
2023-02-27T10:23:36.000Z,1025.4
2023-02-27T10:24:53.000Z,1025.4
2023-02-27T10:26:09.000Z,1025.3
2023-02-27T10:27:25.000Z,1025.3
2023-02-27T10:28:41.000Z,1025.3
2023-02-27T10:29:57.000Z,1025.3
2023-02-27T10:31:14.000Z,1025.4
2023-02-27T10:32:30.000Z,1025.3
2023-02-27T10:33:46.000Z,1025.3
2023-02-27T10:35:02.000Z,1025.3
2023-02-27T10:36:19.000Z,1025.3
2023-02-27T10:37:35.000Z,1025.2
2023-02-27T10:38:50.000Z,1025.3
2023-02-27T10:40:06.000Z,1025.3
2023-02-27T10:41:23.000Z,1025.3
2023-02-27T10:42:39.000Z,1025.3
2023-02-27T10:43:55.000Z,1025.3
2023-02-27T10:45:11.000Z,1025.3
2023-02-27T10:46:28.000Z,1025.3
2023-02-27T10:47:44.000Z,1025.2
2023-02-27T10:49:00.000Z,1025.2
2023-02-27T10:50:16.000Z,1025.2
2023-02-27T10:51:32.000Z,1025.2
2023-02-27T10:52:49.000Z,1025.2
2023-02-27T10:54:05.000Z,1025.2
2023-02-27T10:55:20.000Z,1025.1
2023-02-27T10:56:36.000Z,1025.1
2023-02-27T10:57:53.000Z,1025.1
2023-02-27T10:59:09.000Z,1025.1
2023-02-27T11:00:25.000Z,1025.1
2023-02-27T11:01:41.000Z,1025.2
2023-02-27T11:02:57.000Z,1025.1
2023-02-27T11:04:13.000Z,1025.1
2023-02-27T11:05:29.000Z,1025.1
2023-02-27T11:06:45.000Z,1025.1
2023-02-27T11:08:02.000Z,1025.1
2023-02-27T11:09:18.000Z,1025.2
2023-02-27T11:10:34.000Z,1025.1
2023-02-27T11:11:50.000Z,1025.1
2023-02-27T11:13:06.000Z,1025
2023-02-27T11:14:23.000Z,1025
2023-02-27T11:15:39.000Z,1025
2023-02-27T11:16:55.000Z,1025
2023-02-27T11:18:11.000Z,1025.1
2023-02-27T11:19:27.000Z,1025
2023-02-27T11:20:43.000Z,1024.9
2023-02-27T11:21:59.000Z,1024.9
2023-02-27T11:23:15.000Z,1024.9
2023-02-27T11:24:32.000Z,1024.9
2023-02-27T11:25:48.000Z,1024.9
2023-02-27T11:27:04.000Z,1024.8
2023-02-27T11:28:20.000Z,1024.8
2023-02-27T11:29:37.000Z,1024.9
2023-02-27T11:30:53.000Z,1024.8
2023-02-27T11:32:09.000Z,1024.7
2023-02-27T11:33:25.000Z,1024.8
2023-02-27T11:34:41.000Z,1024.8
2023-02-27T11:35:57.000Z,1024.8
2023-02-27T11:37:13.000Z,1024.8
2023-02-27T11:38:29.000Z,1024.7
2023-02-27T11:39:45.000Z,1024.7
2023-02-27T11:41:02.000Z,1024.7
2023-02-27T11:42:18.000Z,1024.7
2023-02-27T11:43:34.000Z,1024.8
2023-02-27T11:44:50.000Z,1024.8
2023-02-27T11:46:07.000Z,1024.8
2023-02-27T11:47:23.000Z,1024.7
2023-02-27T11:48:39.000Z,1024.8
2023-02-27T11:49:55.000Z,1024.8
2023-02-27T11:51:12.000Z,1024.7
2023-02-27T11:52:27.000Z,1024.7
2023-02-27T11:53:43.000Z,1024.7
2023-02-27T11:54:59.000Z,1024.7
2023-02-27T11:56:15.000Z,1024.7
2023-02-27T11:57:32.000Z,1024.8
2023-02-27T11:58:48.000Z,1024.7
2023-02-27T12:00:04.000Z,1024.7
2023-02-27T12:01:20.000Z,1024.7
2023-02-27T12:02:37.000Z,1024.7
2023-02-27T12:03:53.000Z,1024.7
2023-02-27T12:05:09.000Z,1024.6
2023-02-27T12:06:25.000Z,1024.6
2023-02-27T12:07:42.000Z,1024.6
2023-02-27T12:08:57.000Z,1024.7
2023-02-27T12:10:13.000Z,1024.7
2023-02-27T12:12:46.000Z,1024.6
2023-02-27T12:14:02.000Z,1024.5
2023-02-27T12:15:18.000Z,1024.6
2023-02-27T12:16:34.000Z,1024.6
2023-02-27T12:17:50.000Z,1024.6
2023-02-27T12:19:07.000Z,1024.6
2023-02-27T12:20:23.000Z,1024.5
2023-02-27T12:21:39.000Z,1024.4
2023-02-27T12:22:55.000Z,1024.5
2023-02-27T12:24:12.000Z,1024.5
2023-02-27T12:25:27.000Z,1024.5
2023-02-27T12:26:43.000Z,1024.5
2023-02-27T12:27:58.000Z,1024.5
2023-02-27T12:29:14.000Z,1024.5
2023-02-27T12:30:29.000Z,1024.4
2023-02-27T12:31:44.000Z,1024.4
2023-02-27T12:33:00.000Z,1024.4
2023-02-27T12:34:17.000Z,1024.3
2023-02-27T12:35:33.000Z,1024.4
2023-02-27T12:36:49.000Z,1024.3
2023-02-27T12:38:05.000Z,1024.3
2023-02-27T12:39:22.000Z,1024.4
2023-02-27T12:40:38.000Z,1024.3
2023-02-27T12:41:54.000Z,1024.4
2023-02-27T12:43:10.000Z,1024.5
2023-02-27T12:44:26.000Z,1024.5
2023-02-27T12:45:43.000Z,1024.5
2023-02-27T12:46:59.000Z,1024.4
2023-02-27T12:48:14.000Z,1024.4
2023-02-27T12:49:30.000Z,1024.5
2023-02-27T12:50:47.000Z,1024.5
2023-02-27T12:52:03.000Z,1024.4
2023-02-27T12:53:19.000Z,1024.5
2023-02-27T12:54:35.000Z,1024.5
2023-02-27T12:55:52.000Z,1024.5
2023-02-27T12:57:08.000Z,1024.4
2023-02-27T12:58:23.000Z,1024.5
2023-02-27T12:59:38.000Z,1024.5
2023-02-27T13:00:55.000Z,1024.4
2023-02-27T13:02:11.000Z,1024.5
2023-02-27T13:03:27.000Z,1024.4
2023-02-27T13:04:42.000Z,1024.4
2023-02-27T13:05:58.000Z,1024.4
2023-02-27T13:07:14.000Z,1024.4
2023-02-27T13:08:30.000Z,1024.5
2023-02-27T13:09:46.000Z,1024.4
2023-02-27T13:11:03.000Z,1024.5
2023-02-27T13:12:19.000Z,1024.4
2023-02-27T13:13:35.000Z,1024.4
2023-02-27T13:14:51.000Z,1024.4
2023-02-27T13:16:07.000Z,1024.4
2023-02-27T13:17:24.000Z,1024.4
2023-02-27T13:18:40.000Z,1024.4
2023-02-27T13:19:56.000Z,1024.4
2023-02-27T13:21:12.000Z,1024.3
2023-02-27T13:22:28.000Z,1024.4
2023-02-27T13:23:44.000Z,1024.4
2023-02-27T13:25:00.000Z,1024.4
2023-02-27T13:26:16.000Z,1024.3
2023-02-27T13:27:33.000Z,1024.3
2023-02-27T13:28:49.000Z,1024.2
2023-02-27T13:30:05.000Z,1024.4
2023-02-27T13:31:21.000Z,1024.2
2023-02-27T13:32:38.000Z,1024.2
2023-02-27T13:33:54.000Z,1024.3
2023-02-27T13:35:10.000Z,1024.2
2023-02-27T13:36:26.000Z,1024.2
2023-02-27T13:37:42.000Z,1024.2
2023-02-27T13:38:58.000Z,1024.2
2023-02-27T13:41:30.000Z,1024.2
2023-02-27T13:42:46.000Z,1024.2
2023-02-27T13:44:03.000Z,1024.2
2023-02-27T13:45:19.000Z,1024.2
2023-02-27T13:46:35.000Z,1024.1
2023-02-27T13:47:51.000Z,1024.2
2023-02-27T13:49:08.000Z,1024.1
2023-02-27T13:50:24.000Z,1024
2023-02-27T13:51:40.000Z,1024.1
2023-02-27T13:52:56.000Z,1024.2
2023-02-27T13:54:13.000Z,1024.2
2023-02-27T13:55:28.000Z,1024.1
2023-02-27T13:56:44.000Z,1024.2
2023-02-27T13:58:00.000Z,1024.2
2023-02-27T13:59:16.000Z,1024.2
2023-02-27T14:00:33.000Z,1024.2
2023-02-27T14:01:49.000Z,1024.1
2023-02-27T14:03:05.000Z,1024.1
2023-02-27T14:04:21.000Z,1024.1
2023-02-27T14:05:38.000Z,1024
2023-02-27T14:06:54.000Z,1024
2023-02-27T14:08:10.000Z,1024
2023-02-27T14:09:26.000Z,1024
2023-02-27T14:10:43.000Z,1024
2023-02-27T14:11:59.000Z,1024
2023-02-27T14:13:14.000Z,1024.1
2023-02-27T14:14:29.000Z,1024
2023-02-27T14:15:45.000Z,1024
2023-02-27T14:17:01.000Z,1024
2023-02-27T14:18:17.000Z,1024.1
2023-02-27T14:19:33.000Z,1024.2
2023-02-27T14:20:49.000Z,1024.2
2023-02-27T14:22:04.000Z,1024.2
2023-02-27T14:23:20.000Z,1024.2
2023-02-27T14:24:36.000Z,1024.2
2023-02-27T14:25:52.000Z,1024.3
2023-02-27T14:27:09.000Z,1024.3
2023-02-27T14:28:25.000Z,1024.3
2023-02-27T14:29:41.000Z,1024.3
2023-02-27T14:30:57.000Z,1024.2
2023-02-27T14:32:14.000Z,1024.2
2023-02-27T14:33:30.000Z,1024.1
2023-02-27T14:34:46.000Z,1024.1
2023-02-27T14:36:02.000Z,1024.2
2023-02-27T14:37:19.000Z,1024.1
2023-02-27T14:38:34.000Z,1024.1
2023-02-27T14:39:50.000Z,1024.1
2023-02-27T14:41:06.000Z,1024.1
2023-02-27T14:42:23.042Z,1024.2
2023-02-27T14:43:39.000Z,1024.1
2023-02-27T14:44:55.000Z,1024.1
2023-02-27T14:46:11.000Z,1024.1
2023-02-27T14:47:27.000Z,1024
2023-02-27T14:48:44.000Z,1024.1
2023-02-27T14:50:00.000Z,1024.1
2023-02-27T14:52:32.000Z,1024.1
2023-02-27T14:53:49.000Z,1024.2
2023-02-27T14:55:04.000Z,1024.2
2023-02-27T14:56:20.000Z,1024.2
2023-02-27T14:57:36.000Z,1024.2
2023-02-27T14:58:53.000Z,1024.2
2023-02-27T15:00:09.000Z,1024.2
2023-02-27T15:01:25.000Z,1024.2
2023-02-27T15:02:41.000Z,1024.2
2023-02-27T15:03:58.000Z,1024.1
2023-02-27T15:05:14.000Z,1024.2
2023-02-27T15:06:30.000Z,1024.1
2023-02-27T15:07:46.000Z,1024.2
2023-02-27T15:09:02.000Z,1024.1
2023-02-27T15:10:19.000Z,1024.1
2023-02-27T15:11:34.000Z,1024.2
2023-02-27T15:12:50.000Z,1024.2
2023-02-27T15:14:06.000Z,1024.2
2023-02-27T15:15:23.000Z,1024.1
2023-02-27T15:16:39.000Z,1024.2
2023-02-27T15:17:54.000Z,1024.2
2023-02-27T15:19:10.000Z,1024.2
2023-02-27T15:20:27.000Z,1024.1
2023-02-27T15:21:43.000Z,1024.1
2023-02-27T15:22:59.000Z,1024.1
2023-02-27T15:24:15.000Z,1024.2
2023-02-27T15:25:32.000Z,1024.2
2023-02-27T15:26:48.000Z,1024.2
2023-02-27T15:28:04.000Z,1024.2
2023-02-27T15:29:20.000Z,1024.2
2023-02-27T15:30:36.000Z,1024.2
2023-02-27T15:31:53.000Z,1024.3
2023-02-27T15:33:09.000Z,1024.2
2023-02-27T15:34:24.000Z,1024.2
2023-02-27T15:35:40.000Z,1024.2
2023-02-27T15:36:57.000Z,1024.2
2023-02-27T15:38:13.000Z,1024.2
2023-02-27T15:39:29.000Z,1024.2
2023-02-27T15:40:45.000Z,1024.3
2023-02-27T15:42:02.000Z,1024.2
2023-02-27T15:43:18.000Z,1024.3
2023-02-27T15:44:34.000Z,1024.3
2023-02-27T15:45:50.000Z,1024.3
2023-02-27T15:47:07.000Z,1024.4
2023-02-27T15:48:23.000Z,1024.3
2023-02-27T15:49:39.000Z,1024.3
2023-02-27T15:50:54.000Z,1024.3
2023-02-27T15:52:11.000Z,1024.4
2023-02-27T15:53:27.000Z,1024.4
2023-02-27T15:54:43.000Z,1024.3
2023-02-27T15:55:59.000Z,1024.3
2023-02-27T15:57:15.000Z,1024.3
2023-02-27T15:58:32.000Z,1024.3
2023-02-27T15:59:48.000Z,1024.4